sensor_id;sensor_type;location;lat;lon;timestamp;P1;durP1;ratioP1;P2;durP2;ratioP2
15661;SDS011;7931;52.274;10.470;2022-09-28T00:00:08;9.73;;;7.70;;
15661;SDS011;7931;52.274;10.470;2022-09-28T00:02:33;10.40;;;9.30;;
15661;SDS011;7931;52.274;10.470;2022-09-28T00:04:59;9.70;;;7.73;;
15661;SDS011;7931;52.274;10.470;2022-09-28T00:07:25;8.70;;;7.80;;
15661;SDS011;7931;52.274;10.470;2022-09-28T00:09:50;10.73;;;7.90;;
15661;SDS011;7931;52.274;10.470;2022-09-28T00:12:15;10.03;;;7.57;;
15661;SDS011;7931;52.274;10.470;2022-09-28T00:14:40;9.33;;;8.07;;
15661;SDS011;7931;52.274;10.470;2022-09-28T00:17:08;8.97;;;7.80;;
15661;SDS011;7931;52.274;10.470;2022-09-28T00:19:33;10.03;;;7.27;;
15661;SDS011;7931;52.274;10.470;2022-09-28T00:21:58;9.17;;;7.57;;
15661;SDS011;7931;52.274;10.470;2022-09-28T00:24:23;7.77;;;6.73;;
15661;SDS011;7931;52.274;10.470;2022-09-28T00:26:49;8.87;;;6.90;;
15661;SDS011;7931;52.274;10.470;2022-09-28T00:31:40;7.70;;;6.90;;
15661;SDS011;7931;52.274;10.470;2022-09-28T00:34:05;6.97;;;6.10;;
15661;SDS011;7931;52.274;10.470;2022-09-28T00:36:31;7.60;;;6.60;;
15661;SDS011;7931;52.274;10.470;2022-09-28T00:38:57;8.23;;;6.30;;
15661;SDS011;7931;52.274;10.470;2022-09-28T00:41:22;7.00;;;6.00;;
15661;SDS011;7931;52.274;10.470;2022-09-28T00:43:48;6.10;;;5.50;;
15661;SDS011;7931;52.274;10.470;2022-09-28T00:46:17;6.97;;;5.70;;
15661;SDS011;7931;52.274;10.470;2022-09-28T00:48:57;6.80;;;4.87;;
15661;SDS011;7931;52.274;10.470;2022-09-28T00:51:23;5.40;;;4.67;;
15661;SDS011;7931;52.274;10.470;2022-09-28T00:53:50;5.77;;;4.77;;
15661;SDS011;7931;52.274;10.470;2022-09-28T00:56:16;6.07;;;4.93;;
15661;SDS011;7931;52.274;10.470;2022-09-28T00:58:44;6.70;;;4.97;;
15661;SDS011;7931;52.274;10.470;2022-09-28T01:01:10;5.17;;;4.63;;
15661;SDS011;7931;52.274;10.470;2022-09-28T01:03:36;7.60;;;5.00;;
15661;SDS011;7931;52.274;10.470;2022-09-28T01:06:02;4.40;;;4.00;;
15661;SDS011;7931;52.274;10.470;2022-09-28T01:08:28;6.97;;;4.13;;
15661;SDS011;7931;52.274;10.470;2022-09-28T01:10:54;4.80;;;3.97;;
15661;SDS011;7931;52.274;10.470;2022-09-28T01:13:20;5.47;;;3.93;;
15661;SDS011;7931;52.274;10.470;2022-09-28T01:15:53;5.83;;;3.57;;
15661;SDS011;7931;52.274;10.470;2022-09-28T01:20:50;5.90;;;3.53;;
15661;SDS011;7931;52.274;10.470;2022-09-28T01:23:39;3.67;;;2.93;;
15661;SDS011;7931;52.274;10.470;2022-09-28T01:28:52;3.07;;;2.77;;
15661;SDS011;7931;52.274;10.470;2022-09-28T01:31:22;4.43;;;3.47;;
15661;SDS011;7931;52.274;10.470;2022-09-28T01:33:53;4.33;;;3.47;;
15661;SDS011;7931;52.274;10.470;2022-09-28T01:36:26;3.93;;;3.50;;
15661;SDS011;7931;52.274;10.470;2022-09-28T01:38:54;5.63;;;3.87;;
15661;SDS011;7931;52.274;10.470;2022-09-28T01:41:21;4.23;;;3.80;;
15661;SDS011;7931;52.274;10.470;2022-09-28T01:43:49;3.40;;;3.10;;
15661;SDS011;7931;52.274;10.470;2022-09-28T01:46:19;4.63;;;3.17;;
15661;SDS011;7931;52.274;10.470;2022-09-28T01:48:47;4.07;;;3.13;;
15661;SDS011;7931;52.274;10.470;2022-09-28T01:51:18;4.13;;;3.43;;
15661;SDS011;7931;52.274;10.470;2022-09-28T01:53:50;4.23;;;3.40;;
15661;SDS011;7931;52.274;10.470;2022-09-28T01:56:18;4.97;;;3.33;;
15661;SDS011;7931;52.274;10.470;2022-09-28T01:58:47;4.57;;;2.80;;
15661;SDS011;7931;52.274;10.470;2022-09-28T02:01:15;3.70;;;3.23;;
15661;SDS011;7931;52.274;10.470;2022-09-28T02:03:46;3.40;;;2.97;;
15661;SDS011;7931;52.274;10.470;2022-09-28T02:06:17;3.40;;;3.00;;
15661;SDS011;7931;52.274;10.470;2022-09-28T02:08:48;5.70;;;3.67;;
15661;SDS011;7931;52.274;10.470;2022-09-28T02:11:17;4.43;;;3.67;;
15661;SDS011;7931;52.274;10.470;2022-09-28T02:13:45;4.47;;;3.20;;
15661;SDS011;7931;52.274;10.470;2022-09-28T02:18:55;5.83;;;3.90;;
15661;SDS011;7931;52.274;10.470;2022-09-28T02:21:22;3.97;;;3.60;;
15661;SDS011;7931;52.274;10.470;2022-09-28T02:24:00;4.77;;;3.83;;
15661;SDS011;7931;52.274;10.470;2022-09-28T02:26:28;5.50;;;3.63;;
15661;SDS011;7931;52.274;10.470;2022-09-28T02:28:55;3.87;;;3.23;;
15661;SDS011;7931;52.274;10.470;2022-09-28T02:31:20;5.50;;;3.90;;
15661;SDS011;7931;52.274;10.470;2022-09-28T02:33:45;5.13;;;4.40;;
15661;SDS011;7931;52.274;10.470;2022-09-28T02:36:11;6.10;;;4.67;;
15661;SDS011;7931;52.274;10.470;2022-09-28T02:38:37;5.53;;;4.90;;
15661;SDS011;7931;52.274;10.470;2022-09-28T02:41:04;8.27;;;4.90;;
15661;SDS011;7931;52.274;10.470;2022-09-28T02:43:35;7.97;;;5.20;;
15661;SDS011;7931;52.274;10.470;2022-09-28T02:46:13;6.37;;;5.73;;
15661;SDS011;7931;52.274;10.470;2022-09-28T02:48:46;9.37;;;6.77;;
15661;SDS011;7931;52.274;10.470;2022-09-28T02:51:18;8.33;;;6.63;;
15661;SDS011;7931;52.274;10.470;2022-09-28T02:53:48;8.80;;;5.80;;
15661;SDS011;7931;52.274;10.470;2022-09-28T02:58:55;6.97;;;5.53;;
15661;SDS011;7931;52.274;10.470;2022-09-28T03:04:07;6.73;;;5.80;;
15661;SDS011;7931;52.274;10.470;2022-09-28T03:06:37;6.50;;;5.80;;
15661;SDS011;7931;52.274;10.470;2022-09-28T03:09:06;6.03;;;5.07;;
15661;SDS011;7931;52.274;10.470;2022-09-28T03:11:35;6.70;;;5.33;;
15661;SDS011;7931;52.274;10.470;2022-09-28T03:14:00;5.67;;;4.40;;
15661;SDS011;7931;52.274;10.470;2022-09-28T03:16:26;8.67;;;6.20;;
15661;SDS011;7931;52.274;10.470;2022-09-28T03:18:53;5.73;;;5.13;;
15661;SDS011;7931;52.274;10.470;2022-09-28T03:21:18;6.53;;;5.20;;
15661;SDS011;7931;52.274;10.470;2022-09-28T03:23:43;7.30;;;5.17;;
15661;SDS011;7931;52.274;10.470;2022-09-28T03:26:11;6.60;;;5.90;;
15661;SDS011;7931;52.274;10.470;2022-09-28T03:28:37;11.07;;;6.33;;
15661;SDS011;7931;52.274;10.470;2022-09-28T03:31:02;7.90;;;5.80;;
15661;SDS011;7931;52.274;10.470;2022-09-28T03:33:27;7.07;;;5.80;;
15661;SDS011;7931;52.274;10.470;2022-09-28T03:35:52;8.90;;;5.47;;
15661;SDS011;7931;52.274;10.470;2022-09-28T03:38:18;8.77;;;6.00;;
15661;SDS011;7931;52.274;10.470;2022-09-28T03:40:43;6.43;;;5.37;;
15661;SDS011;7931;52.274;10.470;2022-09-28T03:43:09;5.20;;;4.70;;
15661;SDS011;7931;52.274;10.470;2022-09-28T03:45:34;7.77;;;5.60;;
15661;SDS011;7931;52.274;10.470;2022-09-28T03:47:59;5.67;;;4.73;;
15661;SDS011;7931;52.274;10.470;2022-09-28T03:50:24;6.37;;;5.37;;
15661;SDS011;7931;52.274;10.470;2022-09-28T03:52:49;6.77;;;5.47;;
15661;SDS011;7931;52.274;10.470;2022-09-28T03:55:15;7.03;;;5.00;;
15661;SDS011;7931;52.274;10.470;2022-09-28T03:57:40;5.13;;;4.60;;
15661;SDS011;7931;52.274;10.470;2022-09-28T04:00:05;4.97;;;4.30;;
15661;SDS011;7931;52.274;10.470;2022-09-28T04:02:30;5.80;;;5.23;;
15661;SDS011;7931;52.274;10.470;2022-09-28T04:04:55;5.50;;;5.00;;
15661;SDS011;7931;52.274;10.470;2022-09-28T04:07:21;9.73;;;4.73;;
15661;SDS011;7931;52.274;10.470;2022-09-28T04:09:46;6.57;;;5.13;;
15661;SDS011;7931;52.274;10.470;2022-09-28T04:12:11;5.32;;;4.50;;
15661;SDS011;7931;52.274;10.470;2022-09-28T04:14:36;7.20;;;5.97;;
15661;SDS011;7931;52.274;10.470;2022-09-28T04:17:01;7.50;;;5.70;;
15661;SDS011;7931;52.274;10.470;2022-09-28T04:19:26;7.30;;;5.07;;
15661;SDS011;7931;52.274;10.470;2022-09-28T04:21:52;7.83;;;5.53;;
15661;SDS011;7931;52.274;10.470;2022-09-28T04:24:17;6.93;;;5.73;;
15661;SDS011;7931;52.274;10.470;2022-09-28T04:26:42;8.23;;;6.23;;
15661;SDS011;7931;52.274;10.470;2022-09-28T04:29:08;9.27;;;6.18;;
15661;SDS011;7931;52.274;10.470;2022-09-28T04:31:46;8.57;;;6.40;;
15661;SDS011;7931;52.274;10.470;2022-09-28T04:34:13;9.70;;;6.80;;
15661;SDS011;7931;52.274;10.470;2022-09-28T04:36:39;9.47;;;6.70;;
15661;SDS011;7931;52.274;10.470;2022-09-28T04:39:04;9.63;;;6.53;;
15661;SDS011;7931;52.274;10.470;2022-09-28T04:41:29;8.63;;;6.07;;
15661;SDS011;7931;52.274;10.470;2022-09-28T04:43:54;6.72;;;5.55;;
15661;SDS011;7931;52.274;10.470;2022-09-28T04:46:19;9.33;;;5.70;;
15661;SDS011;7931;52.274;10.470;2022-09-28T04:48:45;8.63;;;6.40;;
15661;SDS011;7931;52.274;10.470;2022-09-28T04:51:10;10.07;;;6.40;;
15661;SDS011;7931;52.274;10.470;2022-09-28T04:53:35;12.20;;;6.67;;
15661;SDS011;7931;52.274;10.470;2022-09-28T04:56:01;7.43;;;6.53;;
15661;SDS011;7931;52.274;10.470;2022-09-28T04:58:27;6.40;;;5.80;;
15661;SDS011;7931;52.274;10.470;2022-09-28T05:00:52;8.70;;;6.67;;
15661;SDS011;7931;52.274;10.470;2022-09-28T05:03:18;7.43;;;6.13;;
15661;SDS011;7931;52.274;10.470;2022-09-28T05:05:44;9.83;;;6.37;;
15661;SDS011;7931;52.274;10.470;2022-09-28T05:08:09;9.03;;;7.40;;
15661;SDS011;7931;52.274;10.470;2022-09-28T05:10:35;8.77;;;6.40;;
15661;SDS011;7931;52.274;10.470;2022-09-28T05:13:00;8.20;;;6.83;;
15661;SDS011;7931;52.274;10.470;2022-09-28T05:15:26;9.30;;;6.43;;
15661;SDS011;7931;52.274;10.470;2022-09-28T05:17:51;9.47;;;6.80;;
15661;SDS011;7931;52.274;10.470;2022-09-28T05:20:17;8.53;;;6.30;;
15661;SDS011;7931;52.274;10.470;2022-09-28T05:22:42;9.47;;;7.23;;
15661;SDS011;7931;52.274;10.470;2022-09-28T05:25:07;10.27;;;7.67;;
15661;SDS011;7931;52.274;10.470;2022-09-28T05:27:32;10.33;;;7.83;;
15661;SDS011;7931;52.274;10.470;2022-09-28T05:29:57;9.93;;;6.87;;
15661;SDS011;7931;52.274;10.470;2022-09-28T05:32:23;13.13;;;9.00;;
15661;SDS011;7931;52.274;10.470;2022-09-28T05:34:48;12.60;;;8.70;;
15661;SDS011;7931;52.274;10.470;2022-09-28T05:37:13;10.13;;;8.23;;
15661;SDS011;7931;52.274;10.470;2022-09-28T05:39:38;9.80;;;7.17;;
15661;SDS011;7931;52.274;10.470;2022-09-28T05:42:04;13.57;;;8.97;;
15661;SDS011;7931;52.274;10.470;2022-09-28T05:44:29;11.37;;;8.30;;
15661;SDS011;7931;52.274;10.470;2022-09-28T05:46:54;12.73;;;8.83;;
15661;SDS011;7931;52.274;10.470;2022-09-28T05:49:19;10.40;;;7.60;;
15661;SDS011;7931;52.274;10.470;2022-09-28T05:51:44;12.63;;;7.83;;
15661;SDS011;7931;52.274;10.470;2022-09-28T05:54:10;11.13;;;7.87;;
15661;SDS011;7931;52.274;10.470;2022-09-28T05:56:35;18.83;;;7.97;;
15661;SDS011;7931;52.274;10.470;2022-09-28T05:59:00;11.17;;;8.27;;
15661;SDS011;7931;52.274;10.470;2022-09-28T06:01:25;12.63;;;7.97;;
15661;SDS011;7931;52.274;10.470;2022-09-28T06:03:51;12.63;;;9.10;;
15661;SDS011;7931;52.274;10.470;2022-09-28T06:06:16;13.20;;;8.67;;
15661;SDS011;7931;52.274;10.470;2022-09-28T06:08:41;12.68;;;8.65;;
15661;SDS011;7931;52.274;10.470;2022-09-28T06:11:10;12.30;;;8.80;;
15661;SDS011;7931;52.274;10.470;2022-09-28T06:13:36;11.07;;;8.53;;
15661;SDS011;7931;52.274;10.470;2022-09-28T06:16:02;12.97;;;8.97;;
15661;SDS011;7931;52.274;10.470;2022-09-28T06:18:28;13.17;;;9.03;;
15661;SDS011;7931;52.274;10.470;2022-09-28T06:20:54;13.00;;;9.43;;
15661;SDS011;7931;52.274;10.470;2022-09-28T06:23:19;11.60;;;8.77;;
15661;SDS011;7931;52.274;10.470;2022-09-28T06:25:44;13.70;;;9.23;;
15661;SDS011;7931;52.274;10.470;2022-09-28T06:28:10;12.37;;;8.60;;
15661;SDS011;7931;52.274;10.470;2022-09-28T06:30:35;13.57;;;8.20;;
15661;SDS011;7931;52.274;10.470;2022-09-28T06:33:02;15.03;;;9.07;;
15661;SDS011;7931;52.274;10.470;2022-09-28T06:35:28;14.83;;;9.70;;
15661;SDS011;7931;52.274;10.470;2022-09-28T06:37:55;15.13;;;9.00;;
15661;SDS011;7931;52.274;10.470;2022-09-28T06:40:21;13.90;;;9.73;;
15661;SDS011;7931;52.274;10.470;2022-09-28T06:42:56;11.53;;;8.80;;
15661;SDS011;7931;52.274;10.470;2022-09-28T06:45:22;15.47;;;9.70;;
15661;SDS011;7931;52.274;10.470;2022-09-28T06:50:20;16.87;;;10.00;;
15661;SDS011;7931;52.274;10.470;2022-09-28T06:52:48;12.73;;;8.20;;
15661;SDS011;7931;52.274;10.470;2022-09-28T06:55:13;11.77;;;8.17;;
15661;SDS011;7931;52.274;10.470;2022-09-28T06:57:38;12.88;;;8.82;;
15661;SDS011;7931;52.274;10.470;2022-09-28T07:00:03;12.38;;;8.95;;
15661;SDS011;7931;52.274;10.470;2022-09-28T07:02:29;13.90;;;10.10;;
15661;SDS011;7931;52.274;10.470;2022-09-28T07:04:55;12.43;;;8.93;;
15661;SDS011;7931;52.274;10.470;2022-09-28T07:07:20;12.63;;;8.20;;
15661;SDS011;7931;52.274;10.470;2022-09-28T07:09:45;13.63;;;8.53;;
15661;SDS011;7931;52.274;10.470;2022-09-28T07:12:10;11.90;;;8.00;;
15661;SDS011;7931;52.274;10.470;2022-09-28T07:14:37;10.80;;;7.43;;
15661;SDS011;7931;52.274;10.470;2022-09-28T07:17:03;9.87;;;6.80;;
15661;SDS011;7931;52.274;10.470;2022-09-28T07:19:32;16.13;;;12.00;;
15661;SDS011;7931;52.274;10.470;2022-09-28T07:21:57;10.30;;;7.03;;
15661;SDS011;7931;52.274;10.470;2022-09-28T07:24:22;10.67;;;7.20;;
15661;SDS011;7931;52.274;10.470;2022-09-28T07:26:48;9.23;;;6.63;;
15661;SDS011;7931;52.274;10.470;2022-09-28T07:29:13;8.97;;;5.93;;
15661;SDS011;7931;52.274;10.470;2022-09-28T07:31:38;10.33;;;6.27;;
15661;SDS011;7931;52.274;10.470;2022-09-28T07:34:03;8.90;;;6.40;;
15661;SDS011;7931;52.274;10.470;2022-09-28T07:36:29;10.27;;;6.90;;
15661;SDS011;7931;52.274;10.470;2022-09-28T07:38:58;8.93;;;7.10;;
15661;SDS011;7931;52.274;10.470;2022-09-28T07:41:24;7.57;;;5.87;;
15661;SDS011;7931;52.274;10.470;2022-09-28T07:43:56;8.10;;;4.93;;
15661;SDS011;7931;52.274;10.470;2022-09-28T07:46:23;8.70;;;5.57;;
15661;SDS011;7931;52.274;10.470;2022-09-28T07:48:48;5.60;;;4.40;;
15661;SDS011;7931;52.274;10.470;2022-09-28T07:51:13;9.13;;;4.67;;
15661;SDS011;7931;52.274;10.470;2022-09-28T07:53:38;6.17;;;4.27;;
15661;SDS011;7931;52.274;10.470;2022-09-28T07:56:04;3.80;;;2.97;;
15661;SDS011;7931;52.274;10.470;2022-09-28T07:58:33;3.73;;;2.73;;
15661;SDS011;7931;52.274;10.470;2022-09-28T08:01:02;4.10;;;2.53;;
15661;SDS011;7931;52.274;10.470;2022-09-28T08:03:27;4.17;;;2.73;;
15661;SDS011;7931;52.274;10.470;2022-09-28T08:05:56;4.20;;;2.57;;
15661;SDS011;7931;52.274;10.470;2022-09-28T08:08:21;3.43;;;2.63;;
15661;SDS011;7931;52.274;10.470;2022-09-28T08:10:47;5.43;;;2.97;;
15661;SDS011;7931;52.274;10.470;2022-09-28T08:13:12;2.40;;;1.97;;
15661;SDS011;7931;52.274;10.470;2022-09-28T08:15:38;3.27;;;2.40;;
15661;SDS011;7931;52.274;10.470;2022-09-28T08:18:04;3.43;;;2.70;;
15661;SDS011;7931;52.274;10.470;2022-09-28T08:20:30;2.70;;;2.47;;
15661;SDS011;7931;52.274;10.470;2022-09-28T08:23:14;3.40;;;2.17;;
15661;SDS011;7931;52.274;10.470;2022-09-28T08:25:39;3.13;;;1.50;;
15661;SDS011;7931;52.274;10.470;2022-09-28T08:28:04;2.33;;;1.40;;
15661;SDS011;7931;52.274;10.470;2022-09-28T08:30:31;2.63;;;1.67;;
15661;SDS011;7931;52.274;10.470;2022-09-28T08:32:56;2.47;;;1.57;;
15661;SDS011;7931;52.274;10.470;2022-09-28T08:35:21;2.53;;;1.00;;
15661;SDS011;7931;52.274;10.470;2022-09-28T08:37:49;1.63;;;1.17;;
15661;SDS011;7931;52.274;10.470;2022-09-28T08:40:17;1.40;;;1.20;;
15661;SDS011;7931;52.274;10.470;2022-09-28T08:42:43;2.43;;;1.20;;
15661;SDS011;7931;52.274;10.470;2022-09-28T08:45:10;1.63;;;1.10;;
15661;SDS011;7931;52.274;10.470;2022-09-28T08:47:42;1.97;;;1.10;;
15661;SDS011;7931;52.274;10.470;2022-09-28T08:50:28;1.10;;;0.93;;
15661;SDS011;7931;52.274;10.470;2022-09-28T08:52:57;1.53;;;1.20;;
15661;SDS011;7931;52.274;10.470;2022-09-28T08:55:27;1.40;;;1.30;;
15661;SDS011;7931;52.274;10.470;2022-09-28T08:57:58;1.70;;;1.33;;
15661;SDS011;7931;52.274;10.470;2022-09-28T09:00:31;1.23;;;1.00;;
15661;SDS011;7931;52.274;10.470;2022-09-28T09:02:57;1.23;;;1.10;;
15661;SDS011;7931;52.274;10.470;2022-09-28T09:05:23;1.97;;;1.40;;
15661;SDS011;7931;52.274;10.470;2022-09-28T09:07:59;1.80;;;1.30;;
15661;SDS011;7931;52.274;10.470;2022-09-28T09:10:37;3.87;;;1.50;;
15661;SDS011;7931;52.274;10.470;2022-09-28T09:18:19;2.90;;;1.70;;
15661;SDS011;7931;52.274;10.470;2022-09-28T09:20:56;1.97;;;1.20;;
15661;SDS011;7931;52.274;10.470;2022-09-28T09:28:47;1.07;;;0.97;;
15661;SDS011;7931;52.274;10.470;2022-09-28T09:39:11;1.93;;;1.33;;
15661;SDS011;7931;52.274;10.470;2022-09-28T09:41:45;2.60;;;1.50;;
15661;SDS011;7931;52.274;10.470;2022-09-28T09:44:21;1.70;;;1.50;;
15661;SDS011;7931;52.274;10.470;2022-09-28T09:46:58;4.03;;;1.90;;
15661;SDS011;7931;52.274;10.470;2022-09-28T09:49:33;2.20;;;1.77;;
15661;SDS011;7931;52.274;10.470;2022-09-28T09:52:02;1.63;;;1.53;;
15661;SDS011;7931;52.274;10.470;2022-09-28T09:54:32;3.40;;;1.30;;
15661;SDS011;7931;52.274;10.470;2022-09-28T09:57:05;1.97;;;1.70;;
15661;SDS011;7931;52.274;10.470;2022-09-28T09:59:35;1.40;;;1.20;;
15661;SDS011;7931;52.274;10.470;2022-09-28T10:02:02;2.30;;;1.60;;
15661;SDS011;7931;52.274;10.470;2022-09-28T10:04:39;2.27;;;1.60;;
15661;SDS011;7931;52.274;10.470;2022-09-28T10:07:05;2.67;;;1.40;;
15661;SDS011;7931;52.274;10.470;2022-09-28T10:09:33;1.40;;;1.30;;
15661;SDS011;7931;52.274;10.470;2022-09-28T10:11:58;3.13;;;1.53;;
15661;SDS011;7931;52.274;10.470;2022-09-28T10:14:24;2.07;;;1.50;;
15661;SDS011;7931;52.274;10.470;2022-09-28T10:16:54;2.30;;;1.40;;
15661;SDS011;7931;52.274;10.470;2022-09-28T10:19:20;1.93;;;1.40;;
15661;SDS011;7931;52.274;10.470;2022-09-28T10:21:49;2.03;;;1.50;;
15661;SDS011;7931;52.274;10.470;2022-09-28T10:24:26;1.83;;;1.20;;
15661;SDS011;7931;52.274;10.470;2022-09-28T10:26:53;1.57;;;1.20;;
15661;SDS011;7931;52.274;10.470;2022-09-28T10:29:19;1.27;;;1.17;;
15661;SDS011;7931;52.274;10.470;2022-09-28T10:31:45;3.40;;;1.60;;
15661;SDS011;7931;52.274;10.470;2022-09-28T10:34:23;1.40;;;1.30;;
15661;SDS011;7931;52.274;10.470;2022-09-28T10:36:53;2.37;;;1.40;;
15661;SDS011;7931;52.274;10.470;2022-09-28T10:39:27;2.67;;;1.53;;
15661;SDS011;7931;52.274;10.470;2022-09-28T10:41:53;2.30;;;1.43;;
15661;SDS011;7931;52.274;10.470;2022-09-28T10:44:18;1.20;;;1.10;;
15661;SDS011;7931;52.274;10.470;2022-09-28T10:46:44;0.60;;;0.57;;
15661;SDS011;7931;52.274;10.470;2022-09-28T10:49:19;1.00;;;0.80;;
15661;SDS011;7931;52.274;10.470;2022-09-28T10:51:47;0.77;;;0.50;;
15661;SDS011;7931;52.274;10.470;2022-09-28T10:54:15;0.97;;;0.57;;
15661;SDS011;7931;52.274;10.470;2022-09-28T10:56:40;1.17;;;0.50;;
15661;SDS011;7931;52.274;10.470;2022-09-28T11:01:46;3.07;;;0.60;;
15661;SDS011;7931;52.274;10.470;2022-09-28T11:04:13;0.30;;;0.30;;
15661;SDS011;7931;52.274;10.470;2022-09-28T11:06:42;0.77;;;0.70;;
15661;SDS011;7931;52.274;10.470;2022-09-28T11:09:21;1.03;;;0.80;;
15661;SDS011;7931;52.274;10.470;2022-09-28T11:11:48;0.87;;;0.87;;
15661;SDS011;7931;52.274;10.470;2022-09-28T11:14:24;2.70;;;1.20;;
15661;SDS011;7931;52.274;10.470;2022-09-28T11:17:12;1.47;;;0.90;;
15661;SDS011;7931;52.274;10.470;2022-09-28T11:19:35;1.20;;;1.10;;
15661;SDS011;7931;52.274;10.470;2022-09-28T11:22:00;2.20;;;1.03;;
15661;SDS011;7931;52.274;10.470;2022-09-28T11:24:26;1.23;;;0.87;;
15661;SDS011;7931;52.274;10.470;2022-09-28T11:26:52;1.30;;;1.20;;
15661;SDS011;7931;52.274;10.470;2022-09-28T11:29:19;1.93;;;1.53;;
15661;SDS011;7931;52.274;10.470;2022-09-28T11:31:44;1.27;;;1.17;;
15661;SDS011;7931;52.274;10.470;2022-09-28T11:34:21;1.30;;;1.10;;
15661;SDS011;7931;52.274;10.470;2022-09-28T11:37:04;1.40;;;1.30;;
15661;SDS011;7931;52.274;10.470;2022-09-28T11:44:44;5.00;;;4.53;;
15661;SDS011;7931;52.274;10.470;2022-09-28T11:47:23;1.20;;;1.10;;
15661;SDS011;7931;52.274;10.470;2022-09-28T11:49:54;1.40;;;1.30;;
15661;SDS011;7931;52.274;10.470;2022-09-28T11:52:22;1.10;;;1.00;;
15661;SDS011;7931;52.274;10.470;2022-09-28T11:54:53;5.13;;;4.67;;
15661;SDS011;7931;52.274;10.470;2022-09-28T11:57:21;1.90;;;1.80;;
15661;SDS011;7931;52.274;10.470;2022-09-28T11:59:53;2.60;;;1.40;;
15661;SDS011;7931;52.274;10.470;2022-09-28T12:02:24;1.27;;;0.83;;
15661;SDS011;7931;52.274;10.470;2022-09-28T12:04:53;1.97;;;0.70;;
15661;SDS011;7931;52.274;10.470;2022-09-28T12:09:53;1.07;;;0.97;;
15661;SDS011;7931;52.274;10.470;2022-09-28T12:20:40;0.63;;;0.60;;
15661;SDS011;7931;52.274;10.470;2022-09-28T12:25:41;1.88;;;0.77;;
15661;SDS011;7931;52.274;10.470;2022-09-28T12:28:53;1.70;;;0.80;;
15661;SDS011;7931;52.274;10.470;2022-09-28T12:31:08;0.97;;;0.87;;
15661;SDS011;7931;52.274;10.470;2022-09-28T12:33:58;0.93;;;0.60;;
15661;SDS011;7931;52.274;10.470;2022-09-28T12:42:31;1.33;;;0.93;;
15661;SDS011;7931;52.274;10.470;2022-09-28T12:45:14;1.80;;;0.93;;
15661;SDS011;7931;52.274;10.470;2022-09-28T12:47:59;0.60;;;0.60;;
15661;SDS011;7931;52.274;10.470;2022-09-28T12:51:15;1.10;;;0.90;;
15661;SDS011;7931;52.274;10.470;2022-09-28T13:05:00;1.70;;;1.30;;
15661;SDS011;7931;52.274;10.470;2022-09-28T13:10:39;3.20;;;1.17;;
15661;SDS011;7931;52.274;10.470;2022-09-28T13:18:23;2.90;;;1.17;;
15661;SDS011;7931;52.274;10.470;2022-09-28T13:20:59;1.23;;;1.13;;
15661;SDS011;7931;52.274;10.470;2022-09-28T13:23:39;2.40;;;1.27;;
15661;SDS011;7931;52.274;10.470;2022-09-28T13:28:58;2.27;;;1.30;;
15661;SDS011;7931;52.274;10.470;2022-09-28T13:31:28;1.70;;;1.50;;
15661;SDS011;7931;52.274;10.470;2022-09-28T13:33:57;3.30;;;2.33;;
15661;SDS011;7931;52.274;10.470;2022-09-28T13:38:54;1.57;;;1.47;;
15661;SDS011;7931;52.274;10.470;2022-09-28T13:52:08;2.50;;;1.40;;
15661;SDS011;7931;52.274;10.470;2022-09-28T14:06:06;6.20;;;4.80;;
15661;SDS011;7931;52.274;10.470;2022-09-28T14:16:32;9.03;;;6.23;;
15661;SDS011;7931;52.274;10.470;2022-09-28T14:19:07;2.50;;;2.20;;
15661;SDS011;7931;52.274;10.470;2022-09-28T14:21:41;3.60;;;2.90;;
15661;SDS011;7931;52.274;10.470;2022-09-28T14:27:06;1.50;;;1.27;;
15661;SDS011;7931;52.274;10.470;2022-09-28T14:29:43;3.43;;;1.83;;
15661;SDS011;7931;52.274;10.470;2022-09-28T14:34:35;2.83;;;2.33;;
15661;SDS011;7931;52.274;10.470;2022-09-28T14:40:24;3.30;;;2.83;;
15661;SDS011;7931;52.274;10.470;2022-09-28T14:54:01;3.27;;;2.30;;
15661;SDS011;7931;52.274;10.470;2022-09-28T14:56:40;13.53;;;7.40;;
15661;SDS011;7931;52.274;10.470;2022-09-28T14:59:13;2.67;;;2.33;;
15661;SDS011;7931;52.274;10.470;2022-09-28T15:02:29;3.07;;;2.53;;
15661;SDS011;7931;52.274;10.470;2022-09-28T15:04:52;4.30;;;2.87;;
15661;SDS011;7931;52.274;10.470;2022-09-28T15:07:21;8.40;;;6.60;;
15661;SDS011;7931;52.274;10.470;2022-09-28T15:09:48;3.23;;;2.77;;
15661;SDS011;7931;52.274;10.470;2022-09-28T15:12:19;3.70;;;3.17;;
15661;SDS011;7931;52.274;10.470;2022-09-28T15:14:52;3.27;;;2.10;;
15661;SDS011;7931;52.274;10.470;2022-09-28T15:17:25;4.87;;;3.63;;
15661;SDS011;7931;52.274;10.470;2022-09-28T15:22:55;3.07;;;2.63;;
15661;SDS011;7931;52.274;10.470;2022-09-28T15:25:22;3.13;;;2.50;;
15661;SDS011;7931;52.274;10.470;2022-09-28T15:28:09;2.50;;;2.20;;
15661;SDS011;7931;52.274;10.470;2022-09-28T15:30:41;3.50;;;2.93;;
15661;SDS011;7931;52.274;10.470;2022-09-28T15:33:20;2.50;;;2.30;;
15661;SDS011;7931;52.274;10.470;2022-09-28T15:36:12;3.40;;;2.60;;
15661;SDS011;7931;52.274;10.470;2022-09-28T15:38:43;2.73;;;2.40;;
15661;SDS011;7931;52.274;10.470;2022-09-28T15:41:17;2.60;;;2.40;;
15661;SDS011;7931;52.274;10.470;2022-09-28T15:43:42;2.90;;;2.60;;
15661;SDS011;7931;52.274;10.470;2022-09-28T15:46:16;2.47;;;2.23;;
15661;SDS011;7931;52.274;10.470;2022-09-28T15:48:50;3.07;;;2.73;;
15661;SDS011;7931;52.274;10.470;2022-09-28T15:51:19;3.47;;;2.30;;
15661;SDS011;7931;52.274;10.470;2022-09-28T15:53:47;3.40;;;2.70;;
15661;SDS011;7931;52.274;10.470;2022-09-28T15:56:22;2.60;;;2.33;;
15661;SDS011;7931;52.274;10.470;2022-09-28T16:01:39;2.20;;;1.93;;
15661;SDS011;7931;52.274;10.470;2022-09-28T16:09:53;2.20;;;1.83;;
15661;SDS011;7931;52.274;10.470;2022-09-28T16:12:20;2.07;;;1.87;;
15661;SDS011;7931;52.274;10.470;2022-09-28T16:14:52;2.60;;;1.80;;
15661;SDS011;7931;52.274;10.470;2022-09-28T16:17:27;5.77;;;2.47;;
15661;SDS011;7931;52.274;10.470;2022-09-28T16:20:15;2.70;;;2.50;;
15661;SDS011;7931;52.274;10.470;2022-09-28T16:22:44;2.77;;;2.10;;
15661;SDS011;7931;52.274;10.470;2022-09-28T16:25:17;2.30;;;1.83;;
15661;SDS011;7931;52.274;10.470;2022-09-28T16:27:46;2.40;;;2.20;;
15661;SDS011;7931;52.274;10.470;2022-09-28T16:35:28;2.97;;;1.83;;
15661;SDS011;7931;52.274;10.470;2022-09-28T16:38:13;1.40;;;1.30;;
15661;SDS011;7931;52.274;10.470;2022-09-28T16:40:40;5.17;;;1.83;;
15661;SDS011;7931;52.274;10.470;2022-09-28T16:43:09;1.70;;;1.60;;
15661;SDS011;7931;52.274;10.470;2022-09-28T16:45:43;2.40;;;2.20;;
15661;SDS011;7931;52.274;10.470;2022-09-28T16:48:09;1.67;;;1.57;;
15661;SDS011;7931;52.274;10.470;2022-09-28T16:50:40;1.63;;;1.53;;
15661;SDS011;7931;52.274;10.470;2022-09-28T16:53:10;1.60;;;1.50;;
15661;SDS011;7931;52.274;10.470;2022-09-28T16:55:56;2.03;;;1.83;;
15661;SDS011;7931;52.274;10.470;2022-09-28T16:58:22;2.23;;;1.87;;
15661;SDS011;7931;52.274;10.470;2022-09-28T17:00:49;3.17;;;2.50;;
15661;SDS011;7931;52.274;10.470;2022-09-28T17:03:17;3.13;;;2.00;;
15661;SDS011;7931;52.274;10.470;2022-09-28T17:05:42;1.80;;;1.63;;
15661;SDS011;7931;52.274;10.470;2022-09-28T17:08:11;2.27;;;2.07;;
15661;SDS011;7931;52.274;10.470;2022-09-28T17:13:20;2.43;;;2.10;;
15661;SDS011;7931;52.274;10.470;2022-09-28T17:15:47;2.27;;;1.73;;
15661;SDS011;7931;52.274;10.470;2022-09-28T17:18:14;2.20;;;1.87;;
15661;SDS011;7931;52.274;10.470;2022-09-28T17:20:41;2.00;;;1.80;;
15661;SDS011;7931;52.274;10.470;2022-09-28T17:23:09;2.73;;;2.20;;
15661;SDS011;7931;52.274;10.470;2022-09-28T17:25:34;4.63;;;3.40;;
15661;SDS011;7931;52.274;10.470;2022-09-28T17:28:00;4.83;;;3.20;;
15661;SDS011;7931;52.274;10.470;2022-09-28T17:30:26;2.73;;;2.07;;
15661;SDS011;7931;52.274;10.470;2022-09-28T17:32:51;2.07;;;1.77;;